Terminal Aerodrome Forecast
Issued by NWS Austin/San Antonio, TX

Home | Current Version | Previous Version | Text Only | Print | Product List | Glossary On
Versions: 1 2 3 4 5 6 7 8 9 10 11 12 13
000
FTUS44 KEWX 281100
TAFAUS
TAF
KAUS 281130Z 2812/2918 00000KT P6SM FEW250
     FM281700 19006KT P6SM SCT250
     FM282000 18011KT P6SM FEW100 SCT250
     FM290100 19006KT P6SM FEW100 SCT250
     FM290900 21005KT 1SM BR SCT003 SCT100 SCT250
     FM291600 26005KT P6SM SCT100 SCT250=

USA.gov is the U.S. government's official web portal to all federal, state and local government web resources and services.